sensor_id;sensor_type;location;lat;lon;timestamp;pressure;altitude;pressure_sealevel;temperature;humidity
45040;BME280;30778;53.574;7.770;2024-01-27T00:01:14;103013.38;;;1.59;58.98
45040;BME280;30778;53.574;7.770;2024-01-27T00:03:39;103012.22;;;1.49;59.16
45040;BME280;30778;53.574;7.770;2024-01-27T00:06:05;103002.97;;;1.83;57.90
45040;BME280;30778;53.574;7.770;2024-01-27T00:08:30;103004.72;;;1.57;59.11
45040;BME280;30778;53.574;7.770;2024-01-27T00:10:56;103008.22;;;1.59;58.96
45040;BME280;30778;53.574;7.770;2024-01-27T00:13:21;103013.09;;;1.49;58.86
45040;BME280;30778;53.574;7.770;2024-01-27T00:15:47;103014.16;;;1.83;58.20
45040;BME280;30778;53.574;7.770;2024-01-27T00:18:12;103017.59;;;1.57;58.94
45040;BME280;30778;53.574;7.770;2024-01-27T00:20:37;103025.25;;;1.54;58.80
45040;BME280;30778;53.574;7.770;2024-01-27T00:23:03;103021.47;;;1.44;59.58
45040;BME280;30778;53.574;7.770;2024-01-27T00:25:29;103026.13;;;1.54;59.82
45040;BME280;30778;53.574;7.770;2024-01-27T00:27:55;103029.13;;;1.41;59.98
45040;BME280;30778;53.574;7.770;2024-01-27T00:30:20;103024.91;;;1.70;59.61
45040;BME280;30778;53.574;7.770;2024-01-27T00:32:46;103029.06;;;1.65;59.27
45040;BME280;30778;53.574;7.770;2024-01-27T00:35:11;103030.41;;;1.54;59.79
45040;BME280;30778;53.574;7.770;2024-01-27T00:37:40;103038.88;;;1.49;59.57
45040;BME280;30778;53.574;7.770;2024-01-27T00:40:10;103040.44;;;1.71;59.10
45040;BME280;30778;53.574;7.770;2024-01-27T00:42:37;103041.53;;;1.52;59.19
45040;BME280;30778;53.574;7.770;2024-01-27T00:45:04;103037.84;;;1.44;59.59
45040;BME280;30778;53.574;7.770;2024-01-27T00:47:29;103039.44;;;1.68;59.46
45040;BME280;30778;53.574;7.770;2024-01-27T00:49:55;103045.19;;;1.59;59.65
45040;BME280;30778;53.574;7.770;2024-01-27T00:52:21;103033.06;;;1.57;59.82
45040;BME280;30778;53.574;7.770;2024-01-27T00:54:46;103028.66;;;1.27;61.17
45040;BME280;30778;53.574;7.770;2024-01-27T00:57:12;103036.50;;;1.56;60.41
45040;BME280;30778;53.574;7.770;2024-01-27T00:59:37;103048.25;;;1.47;60.70
45040;BME280;30778;53.574;7.770;2024-01-27T01:02:04;103038.72;;;1.45;61.60
45040;BME280;30778;53.574;7.770;2024-01-27T01:04:30;103045.66;;;1.47;61.20
45040;BME280;30778;53.574;7.770;2024-01-27T01:06:58;103041.16;;;1.40;61.10
45040;BME280;30778;53.574;7.770;2024-01-27T01:09:24;103036.19;;;1.46;60.83
45040;BME280;30778;53.574;7.770;2024-01-27T01:11:49;103031.97;;;1.48;61.12
45040;BME280;30778;53.574;7.770;2024-01-27T01:14:14;103024.81;;;0.90;63.05
45040;BME280;30778;53.574;7.770;2024-01-27T01:16:40;103025.56;;;1.11;62.46
45040;BME280;30778;53.574;7.770;2024-01-27T01:19:06;103034.72;;;1.29;61.86
45040;BME280;30778;53.574;7.770;2024-01-27T01:21:31;103039.97;;;1.32;62.13
45040;BME280;30778;53.574;7.770;2024-01-27T01:23:57;103038.31;;;1.34;62.01
45040;BME280;30778;53.574;7.770;2024-01-27T01:26:24;103033.06;;;1.57;60.98
45040;BME280;30778;53.574;7.770;2024-01-27T01:28:50;103031.59;;;1.39;61.63
45040;BME280;30778;53.574;7.770;2024-01-27T01:31:15;103030.44;;;1.29;62.16
45040;BME280;30778;53.574;7.770;2024-01-27T01:33:41;103025.84;;;1.45;62.09
45040;BME280;30778;53.574;7.770;2024-01-27T01:36:07;103034.38;;;0.94;63.60
45040;BME280;30778;53.574;7.770;2024-01-27T01:38:32;103032.88;;;1.25;62.86
45040;BME280;30778;53.574;7.770;2024-01-27T01:40:58;103032.88;;;1.25;62.44
45040;BME280;30778;53.574;7.770;2024-01-27T01:43:23;103030.53;;;1.32;62.59
45040;BME280;30778;53.574;7.770;2024-01-27T01:45:48;103026.84;;;1.24;62.48
45040;BME280;30778;53.574;7.770;2024-01-27T01:48:16;103037.59;;;1.64;60.95
45040;BME280;30778;53.574;7.770;2024-01-27T01:50:42;103040.97;;;1.36;62.12
45040;BME280;30778;53.574;7.770;2024-01-27T01:53:08;103052.88;;;1.58;62.06
45040;BME280;30778;53.574;7.770;2024-01-27T01:55:34;103039.44;;;1.17;63.13
45040;BME280;30778;53.574;7.770;2024-01-27T01:57:59;103040.44;;;1.44;62.23
45040;BME280;30778;53.574;7.770;2024-01-27T02:00:25;103040.44;;;1.44;61.80
45040;BME280;30778;53.574;7.770;2024-01-27T02:02:50;103029.88;;;1.38;62.07
45040;BME280;30778;53.574;7.770;2024-01-27T02:05:16;103034.72;;;1.55;62.00
45040;BME280;30778;53.574;7.770;2024-01-27T02:07:42;103040.78;;;1.82;60.35
45040;BME280;30778;53.574;7.770;2024-01-27T02:10:13;103037.16;;;1.50;62.10
45040;BME280;30778;53.574;7.770;2024-01-27T02:12:41;103035.66;;;1.57;61.46
45040;BME280;30778;53.574;7.770;2024-01-27T02:15:12;103050.53;;;1.65;61.38
45040;BME280;30778;53.574;7.770;2024-01-27T02:17:39;103048.72;;;1.37;62.32
45040;BME280;30778;53.574;7.770;2024-01-27T02:20:08;103061.34;;;1.54;61.42
45040;BME280;30778;53.574;7.770;2024-01-27T02:22:34;103057.84;;;1.51;61.48
45040;BME280;30778;53.574;7.770;2024-01-27T02:25:00;103060.34;;;1.50;61.02
45040;BME280;30778;53.574;7.770;2024-01-27T02:27:26;103053.03;;;1.13;62.69
45040;BME280;30778;53.574;7.770;2024-01-27T02:29:51;103067.94;;;1.21;62.86
45040;BME280;30778;53.574;7.770;2024-01-27T02:32:17;103066.28;;;1.73;60.56
45040;BME280;30778;53.574;7.770;2024-01-27T02:34:42;103062.75;;;1.20;62.26
45040;BME280;30778;53.574;7.770;2024-01-27T02:37:08;103070.22;;;1.12;61.57
45040;BME280;30778;53.574;7.770;2024-01-27T02:39:34;103070.34;;;1.41;60.22
45040;BME280;30778;53.574;7.770;2024-01-27T02:42:00;103080.13;;;1.01;61.67
45040;BME280;30778;53.574;7.770;2024-01-27T02:44:25;103070.72;;;1.02;60.67
45040;BME280;30778;53.574;7.770;2024-01-27T02:46:51;103080.03;;;0.98;61.15
45040;BME280;30778;53.574;7.770;2024-01-27T02:49:16;103070.50;;;0.72;61.61
45040;BME280;30778;53.574;7.770;2024-01-27T02:51:42;103078.84;;;0.42;62.78
45040;BME280;30778;53.574;7.770;2024-01-27T02:54:07;103074.84;;;0.50;62.54
45040;BME280;30778;53.574;7.770;2024-01-27T02:56:32;103076.81;;;0.80;61.51
45040;BME280;30778;53.574;7.770;2024-01-27T02:58:58;103070.81;;;0.81;61.81
45040;BME280;30778;53.574;7.770;2024-01-27T03:01:23;103070.59;;;0.75;61.77
45040;BME280;30778;53.574;7.770;2024-01-27T03:03:49;103066.53;;;1.05;60.22
45040;BME280;30778;53.574;7.770;2024-01-27T03:06:15;103062.78;;;0.96;60.61
45040;BME280;30778;53.574;7.770;2024-01-27T03:08:40;103065.13;;;1.14;59.67
45040;BME280;30778;53.574;7.770;2024-01-27T03:11:06;103070.03;;;0.82;60.95
45040;BME280;30778;53.574;7.770;2024-01-27T03:13:31;103066.69;;;0.84;60.86
45040;BME280;30778;53.574;7.770;2024-01-27T03:15:57;103076.84;;;1.05;60.72
45040;BME280;30778;53.574;7.770;2024-01-27T03:18:22;103077.63;;;0.79;61.26
45040;BME280;30778;53.574;7.770;2024-01-27T03:20:49;103077.03;;;0.86;61.17
45040;BME280;30778;53.574;7.770;2024-01-27T03:23:15;103081.59;;;0.95;61.10
45040;BME280;30778;53.574;7.770;2024-01-27T03:25:41;103079.81;;;0.92;60.81
45040;BME280;30778;53.574;7.770;2024-01-27T03:28:07;103079.63;;;1.11;60.54
45040;BME280;30778;53.574;7.770;2024-01-27T03:30:32;103084.31;;;0.74;61.72
45040;BME280;30778;53.574;7.770;2024-01-27T03:32:58;103080.78;;;1.20;60.09
45040;BME280;30778;53.574;7.770;2024-01-27T03:35:23;103079.41;;;1.05;60.54
45040;BME280;30778;53.574;7.770;2024-01-27T03:37:49;103073.56;;;0.85;61.38
45040;BME280;30778;53.574;7.770;2024-01-27T03:40:14;103081.03;;;1.02;60.30
45040;BME280;30778;53.574;7.770;2024-01-27T03:42:40;103090.78;;;1.10;60.20
45040;BME280;30778;53.574;7.770;2024-01-27T03:45:06;103093.97;;;0.79;60.87
45040;BME280;30778;53.574;7.770;2024-01-27T03:47:31;103097.66;;;1.11;59.81
45040;BME280;30778;53.574;7.770;2024-01-27T03:49:57;103095.75;;;0.82;60.91
45040;BME280;30778;53.574;7.770;2024-01-27T03:52:22;103102.72;;;0.84;60.80
45040;BME280;30778;53.574;7.770;2024-01-27T03:54:48;103103.69;;;1.12;60.24
45040;BME280;30778;53.574;7.770;2024-01-27T03:57:13;103110.94;;;0.98;60.30
45040;BME280;30778;53.574;7.770;2024-01-27T03:59:42;103116.19;;;1.01;60.29
45040;BME280;30778;53.574;7.770;2024-01-27T04:02:07;103119.88;;;0.84;60.25
45040;BME280;30778;53.574;7.770;2024-01-27T04:04:33;103112.25;;;0.87;60.62
45040;BME280;30778;53.574;7.770;2024-01-27T04:06:58;103103.69;;;1.12;59.11
45040;BME280;30778;53.574;7.770;2024-01-27T04:09:24;103099.44;;;0.88;59.26
45040;BME280;30778;53.574;7.770;2024-01-27T04:11:50;103099.00;;;1.00;59.64
45040;BME280;30778;53.574;7.770;2024-01-27T04:14:16;103105.28;;;0.84;60.33
45040;BME280;30778;53.574;7.770;2024-01-27T04:16:41;103105.50;;;0.66;59.99
45040;BME280;30778;53.574;7.770;2024-01-27T04:19:07;103099.22;;;1.06;59.07
45040;BME280;30778;53.574;7.770;2024-01-27T04:21:32;103105.28;;;0.84;59.75
45040;BME280;30778;53.574;7.770;2024-01-27T04:23:58;103102.81;;;0.87;60.03
45040;BME280;30778;53.574;7.770;2024-01-27T04:26:23;103097.34;;;1.02;59.55
45040;BME280;30778;53.574;7.770;2024-01-27T04:28:49;103104.03;;;0.97;59.18
45040;BME280;30778;53.574;7.770;2024-01-27T04:31:14;103102.19;;;0.93;58.65
45040;BME280;30778;53.574;7.770;2024-01-27T04:33:40;103105.38;;;0.86;59.49
45040;BME280;30778;53.574;7.770;2024-01-27T04:36:05;103096.81;;;0.87;58.38
45040;BME280;30778;53.574;7.770;2024-01-27T04:38:32;103104.28;;;0.81;59.01
45040;BME280;30778;53.574;7.770;2024-01-27T04:40:58;103093.06;;;0.79;59.11
45040;BME280;30778;53.574;7.770;2024-01-27T04:43:23;103098.00;;;0.50;59.63
45040;BME280;30778;53.574;7.770;2024-01-27T04:45:49;103104.56;;;0.64;58.71
45040;BME280;30778;53.574;7.770;2024-01-27T04:48:15;103105.72;;;0.73;58.72
45040;BME280;30778;53.574;7.770;2024-01-27T04:50:40;103095.31;;;0.69;58.46
45040;BME280;30778;53.574;7.770;2024-01-27T04:53:06;103097.19;;;0.51;58.53
45040;BME280;30778;53.574;7.770;2024-01-27T04:55:32;103107.59;;;0.09;59.90
45040;BME280;30778;53.574;7.770;2024-01-27T04:57:57;103106.66;;;0.30;59.50
45040;BME280;30778;53.574;7.770;2024-01-27T05:00:26;103095.50;;;0.06;60.60
45040;BME280;30778;53.574;7.770;2024-01-27T05:02:53;103099.53;;;0.22;59.26
45040;BME280;30778;53.574;7.770;2024-01-27T05:05:18;103104.09;;;0.30;59.21
45040;BME280;30778;53.574;7.770;2024-01-27T05:07:44;103114.22;;;0.25;59.83
45040;BME280;30778;53.574;7.770;2024-01-27T05:10:12;103103.41;;;0.34;59.51
45040;BME280;30778;53.574;7.770;2024-01-27T05:12:38;103103.53;;;0.37;58.93
45040;BME280;30778;53.574;7.770;2024-01-27T05:15:04;103119.19;;;-0.22;61.29
45040;BME280;30778;53.574;7.770;2024-01-27T05:17:30;103113.22;;;0.21;60.45
45040;BME280;30778;53.574;7.770;2024-01-27T05:19:56;103122.00;;;0.26;59.63
45040;BME280;30778;53.574;7.770;2024-01-27T05:22:22;103128.06;;;0.06;60.26
45040;BME280;30778;53.574;7.770;2024-01-27T05:24:48;103116.94;;;0.30;59.96
45040;BME280;30778;53.574;7.770;2024-01-27T05:27:13;103127.94;;;0.25;60.08
45040;BME280;30778;53.574;7.770;2024-01-27T05:29:39;103137.25;;;0.22;60.33
45040;BME280;30778;53.574;7.770;2024-01-27T05:32:04;103129.53;;;0.01;60.55
45040;BME280;30778;53.574;7.770;2024-01-27T05:34:30;103118.63;;;0.06;60.07
45040;BME280;30778;53.574;7.770;2024-01-27T05:36:55;103124.34;;;-0.01;61.06
45040;BME280;30778;53.574;7.770;2024-01-27T05:39:21;103134.25;;;0.11;60.38
45040;BME280;30778;53.574;7.770;2024-01-27T05:41:46;103134.56;;;-0.02;61.02
45040;BME280;30778;53.574;7.770;2024-01-27T05:44:12;103133.66;;;0.18;60.05
45040;BME280;30778;53.574;7.770;2024-01-27T05:46:37;103133.03;;;0.24;60.56
45040;BME280;30778;53.574;7.770;2024-01-27T05:49:02;103144.16;;;0.02;60.42
45040;BME280;30778;53.574;7.770;2024-01-27T05:51:29;103140.22;;;0.10;60.77
45040;BME280;30778;53.574;7.770;2024-01-27T05:53:59;103141.81;;;0.29;59.83
45040;BME280;30778;53.574;7.770;2024-01-27T05:56:24;103147.75;;;0.05;60.45
45040;BME280;30778;53.574;7.770;2024-01-27T05:58:50;103143.69;;;0.12;60.33
45040;BME280;30778;53.574;7.770;2024-01-27T06:01:19;103148.50;;;-0.18;61.32
45040;BME280;30778;53.574;7.770;2024-01-27T06:03:45;103144.31;;;0.27;59.64
45040;BME280;30778;53.574;7.770;2024-01-27T06:06:10;103152.34;;;0.14;60.01
45040;BME280;30778;53.574;7.770;2024-01-27T06:08:36;103158.84;;;-0.17;60.76
45040;BME280;30778;53.574;7.770;2024-01-27T06:11:02;103160.28;;;-0.02;60.66
45040;BME280;30778;53.574;7.770;2024-01-27T06:13:28;103153.88;;;0.09;60.25
45040;BME280;30778;53.574;7.770;2024-01-27T06:15:54;103166.31;;;0.19;59.90
45040;BME280;30778;53.574;7.770;2024-01-27T06:18:20;103157.91;;;0.23;59.55
45040;BME280;30778;53.574;7.770;2024-01-27T06:20:46;103154.41;;;0.23;59.10
45040;BME280;30778;53.574;7.770;2024-01-27T06:23:13;103160.22;;;0.17;59.40
45040;BME280;30778;53.574;7.770;2024-01-27T06:25:39;103169.13;;;0.04;60.35
45040;BME280;30778;53.574;7.770;2024-01-27T06:28:05;103164.41;;;0.15;59.57
45040;BME280;30778;53.574;7.770;2024-01-27T06:30:30;103159.34;;;0.17;59.58
45040;BME280;30778;53.574;7.770;2024-01-27T06:32:56;103161.59;;;0.09;59.74
45040;BME280;30778;53.574;7.770;2024-01-27T06:35:22;103162.34;;;0.06;59.31
45040;BME280;30778;53.574;7.770;2024-01-27T06:37:47;103157.38;;;0.11;59.13
45040;BME280;30778;53.574;7.770;2024-01-27T06:40:13;103157.00;;;-0.19;60.01
45040;BME280;30778;53.574;7.770;2024-01-27T06:42:39;103159.72;;;0.05;59.69
45040;BME280;30778;53.574;7.770;2024-01-27T06:45:05;103159.66;;;0.03;59.57
45040;BME280;30778;53.574;7.770;2024-01-27T06:47:31;103167.56;;;0.08;58.50
45040;BME280;30778;53.574;7.770;2024-01-27T06:49:56;103175.81;;;0.01;58.38
45040;BME280;30778;53.574;7.770;2024-01-27T06:52:22;103191.13;;;-0.02;58.58
45040;BME280;30778;53.574;7.770;2024-01-27T06:54:47;103185.13;;;-0.03;59.42
45040;BME280;30778;53.574;7.770;2024-01-27T06:57:23;103186.00;;;-0.02;58.55
45040;BME280;30778;53.574;7.770;2024-01-27T06:59:49;103180.59;;;-0.08;58.55
45040;BME280;30778;53.574;7.770;2024-01-27T07:02:22;103178.91;;;-0.08;58.80
45040;BME280;30778;53.574;7.770;2024-01-27T07:04:48;103180.59;;;-0.49;60.92
45040;BME280;30778;53.574;7.770;2024-01-27T07:07:13;103177.72;;;-0.16;59.74
45040;BME280;30778;53.574;7.770;2024-01-27T07:09:39;103184.59;;;-0.15;59.59
45040;BME280;30778;53.574;7.770;2024-01-27T07:12:05;103178.31;;;-0.43;60.70
45040;BME280;30778;53.574;7.770;2024-01-27T07:14:31;103180.47;;;-0.11;59.71
45040;BME280;30778;53.574;7.770;2024-01-27T07:16:56;103184.38;;;-0.21;59.69
45040;BME280;30778;53.574;7.770;2024-01-27T07:19:22;103188.38;;;-0.07;59.86
45040;BME280;30778;53.574;7.770;2024-01-27T07:21:47;103187.25;;;-0.14;60.19
45040;BME280;30778;53.574;7.770;2024-01-27T07:24:13;103193.50;;;-0.28;60.25
45040;BME280;30778;53.574;7.770;2024-01-27T07:26:39;103195.13;;;-0.30;60.66
45040;BME280;30778;53.574;7.770;2024-01-27T07:29:04;103199.72;;;-0.23;60.59
45040;BME280;30778;53.574;7.770;2024-01-27T07:31:30;103198.09;;;-0.21;60.60
45040;BME280;30778;53.574;7.770;2024-01-27T07:33:56;103192.03;;;-0.62;61.86
45040;BME280;30778;53.574;7.770;2024-01-27T07:36:21;103196.47;;;-0.19;60.65
45040;BME280;30778;53.574;7.770;2024-01-27T07:38:47;103200.47;;;-0.04;60.19
45040;BME280;30778;53.574;7.770;2024-01-27T07:41:12;103209.19;;;-0.01;60.26
45040;BME280;30778;53.574;7.770;2024-01-27T07:43:38;103214.19;;;-0.04;61.33
45040;BME280;30778;53.574;7.770;2024-01-27T07:46:04;103213.66;;;-0.37;61.88
45040;BME280;30778;53.574;7.770;2024-01-27T07:48:29;103218.06;;;0.06;61.20
45040;BME280;30778;53.574;7.770;2024-01-27T07:50:55;103228.34;;;0.06;60.70
45040;BME280;30778;53.574;7.770;2024-01-27T07:53:22;103216.09;;;0.21;60.58
45040;BME280;30778;53.574;7.770;2024-01-27T07:55:47;103226.41;;;0.21;60.86
45040;BME280;30778;53.574;7.770;2024-01-27T07:58:13;103231.00;;;0.51;59.99
45040;BME280;30778;53.574;7.770;2024-01-27T08:00:39;103230.19;;;0.75;59.79
45040;BME280;30778;53.574;7.770;2024-01-27T08:03:04;103230.03;;;1.15;58.98
45040;BME280;30778;53.574;7.770;2024-01-27T08:05:30;103225.97;;;1.44;58.24
45040;BME280;30778;53.574;7.770;2024-01-27T08:07:56;103236.72;;;1.34;57.54
45040;BME280;30778;53.574;7.770;2024-01-27T08:10:22;103226.97;;;1.25;57.46
45040;BME280;30778;53.574;7.770;2024-01-27T08:12:47;103228.78;;;1.28;57.50
45040;BME280;30778;53.574;7.770;2024-01-27T08:15:13;103246.63;;;0.99;57.45
45040;BME280;30778;53.574;7.770;2024-01-27T08:17:39;103247.41;;;0.98;58.18
45040;BME280;30778;53.574;7.770;2024-01-27T08:20:05;103243.66;;;1.35;58.21
45040;BME280;30778;53.574;7.770;2024-01-27T08:22:31;103254.75;;;1.81;57.15
45040;BME280;30778;53.574;7.770;2024-01-27T08:24:57;103240.66;;;1.97;56.01
45040;BME280;30778;53.574;7.770;2024-01-27T08:27:22;103243.69;;;2.63;54.46
45040;BME280;30778;53.574;7.770;2024-01-27T08:29:48;103242.34;;;3.33;54.81
45040;BME280;30778;53.574;7.770;2024-01-27T08:32:14;103244.72;;;3.89;52.28
45040;BME280;30778;53.574;7.770;2024-01-27T08:34:39;103242.28;;;3.95;50.65
45040;BME280;30778;53.574;7.770;2024-01-27T08:37:17;103241.44;;;4.31;50.07
45040;BME280;30778;53.574;7.770;2024-01-27T08:39:42;103246.63;;;5.50;49.20
45040;BME280;30778;53.574;7.770;2024-01-27T08:42:09;103245.84;;;5.54;48.34
45040;BME280;30778;53.574;7.770;2024-01-27T08:44:34;103231.34;;;6.14;47.70
45040;BME280;30778;53.574;7.770;2024-01-27T08:47:00;103239.06;;;5.60;45.21
45040;BME280;30778;53.574;7.770;2024-01-27T08:49:25;103250.69;;;5.37;47.36
45040;BME280;30778;53.574;7.770;2024-01-27T08:51:51;103251.78;;;4.66;46.85
45040;BME280;30778;53.574;7.770;2024-01-27T08:54:16;103260.22;;;4.22;47.49
45040;BME280;30778;53.574;7.770;2024-01-27T08:56:42;103270.28;;;3.47;50.12
45040;BME280;30778;53.574;7.770;2024-01-27T08:59:08;103272.88;;;3.77;49.03
45040;BME280;30778;53.574;7.770;2024-01-27T09:01:33;103277.41;;;2.68;51.88
45040;BME280;30778;53.574;7.770;2024-01-27T09:03:59;103276.00;;;3.35;52.88
45040;BME280;30778;53.574;7.770;2024-01-27T09:06:25;103264.59;;;3.90;49.70
45040;BME280;30778;53.574;7.770;2024-01-27T09:08:51;103275.75;;;4.21;51.00
45040;BME280;30778;53.574;7.770;2024-01-27T09:11:17;103267.28;;;4.64;49.33
45040;BME280;30778;53.574;7.770;2024-01-27T09:13:42;103257.94;;;5.09;46.88
45040;BME280;30778;53.574;7.770;2024-01-27T09:16:10;103281.09;;;4.63;49.64
45040;BME280;30778;53.574;7.770;2024-01-27T09:18:38;103275.69;;;4.56;48.64
45040;BME280;30778;53.574;7.770;2024-01-27T09:21:04;103267.88;;;4.53;48.94
45040;BME280;30778;53.574;7.770;2024-01-27T09:23:29;103274.22;;;4.67;47.92
45040;BME280;30778;53.574;7.770;2024-01-27T09:25:55;103267.50;;;4.37;48.27
45040;BME280;30778;53.574;7.770;2024-01-27T09:28:21;103268.44;;;4.77;47.58
45040;BME280;30778;53.574;7.770;2024-01-27T09:30:46;103273.06;;;4.53;50.42
45040;BME280;30778;53.574;7.770;2024-01-27T09:33:12;103268.81;;;4.56;48.89
45040;BME280;30778;53.574;7.770;2024-01-27T09:35:38;103268.22;;;4.68;50.81
45040;BME280;30778;53.574;7.770;2024-01-27T09:38:04;103267.50;;;4.37;49.11
45040;BME280;30778;53.574;7.770;2024-01-27T09:40:31;103265.53;;;4.63;50.59
45040;BME280;30778;53.574;7.770;2024-01-27T09:42:59;103270.13;;;4.75;50.62
45040;BME280;30778;53.574;7.770;2024-01-27T09:45:24;103261.97;;;4.95;49.50
45040;BME280;30778;53.574;7.770;2024-01-27T09:47:51;103269.72;;;5.36;47.94
45040;BME280;30778;53.574;7.770;2024-01-27T09:50:17;103275.44;;;5.62;46.88
45040;BME280;30778;53.574;7.770;2024-01-27T09:52:44;103270.75;;;5.45;47.56
45040;BME280;30778;53.574;7.770;2024-01-27T09:55:10;103262.38;;;5.15;48.04
45040;BME280;30778;53.574;7.770;2024-01-27T09:57:38;103269.50;;;5.69;48.98
45040;BME280;30778;53.574;7.770;2024-01-27T10:00:10;103282.88;;;5.45;48.34
45040;BME280;30778;53.574;7.770;2024-01-27T10:02:41;103278.59;;;5.94;48.13
45040;BME280;30778;53.574;7.770;2024-01-27T10:05:08;103283.81;;;5.50;47.64
45040;BME280;30778;53.574;7.770;2024-01-27T10:07:34;103281.34;;;5.55;47.51
45040;BME280;30778;53.574;7.770;2024-01-27T10:10:00;103280.53;;;5.16;49.23
45040;BME280;30778;53.574;7.770;2024-01-27T10:12:26;103280.72;;;5.24;48.84
45040;BME280;30778;53.574;7.770;2024-01-27T10:14:53;103296.13;;;5.60;48.59
45040;BME280;30778;53.574;7.770;2024-01-27T10:17:22;103281.09;;;5.01;50.01
45040;BME280;30778;53.574;7.770;2024-01-27T10:19:59;103291.56;;;4.33;50.48
45040;BME280;30778;53.574;7.770;2024-01-27T10:22:26;103282.38;;;4.46;51.60
45040;BME280;30778;53.574;7.770;2024-01-27T10:24:52;103281.69;;;4.90;49.97
45040;BME280;30778;53.574;7.770;2024-01-27T10:27:17;103277.94;;;5.16;49.05
45040;BME280;30778;53.574;7.770;2024-01-27T10:29:54;103294.09;;;4.32;51.65
45040;BME280;30778;53.574;7.770;2024-01-27T10:32:22;103278.03;;;5.19;49.60
45040;BME280;30778;53.574;7.770;2024-01-27T10:35:05;103275.31;;;5.13;49.70
45040;BME280;30778;53.574;7.770;2024-01-27T10:37:33;103269.81;;;6.36;46.71
45040;BME280;30778;53.574;7.770;2024-01-27T10:40:04;103277.22;;;6.13;47.62
45040;BME280;30778;53.574;7.770;2024-01-27T10:42:30;103295.94;;;6.45;47.44
45040;BME280;30778;53.574;7.770;2024-01-27T10:44:59;103298.97;;;6.20;47.07
45040;BME280;30778;53.574;7.770;2024-01-27T10:47:29;103309.09;;;6.04;48.47
45040;BME280;30778;53.574;7.770;2024-01-27T10:49:57;103308.16;;;5.55;49.25
45040;BME280;30778;53.574;7.770;2024-01-27T10:52:24;103322.53;;;5.39;49.34
45040;BME280;30778;53.574;7.770;2024-01-27T10:54:59;103331.47;;;5.14;51.46
45040;BME280;30778;53.574;7.770;2024-01-27T10:57:32;103324.13;;;5.33;50.70
45040;BME280;30778;53.574;7.770;2024-01-27T11:00:00;103330.94;;;5.72;49.97
45040;BME280;30778;53.574;7.770;2024-01-27T11:02:34;103332.81;;;5.79;48.80
45040;BME280;30778;53.574;7.770;2024-01-27T11:05:04;103322.59;;;6.34;48.46
45040;BME280;30778;53.574;7.770;2024-01-27T11:07:34;103331.81;;;5.71;49.58
45040;BME280;30778;53.574;7.770;2024-01-27T11:10:00;103338.06;;;5.80;49.83
45040;BME280;30778;53.574;7.770;2024-01-27T11:12:26;103339.66;;;5.74;49.96
45040;BME280;30778;53.574;7.770;2024-01-27T11:14:52;103330.47;;;5.47;51.61
45040;BME280;30778;53.574;7.770;2024-01-27T11:17:21;103337.00;;;5.30;50.32
45040;BME280;30778;53.574;7.770;2024-01-27T11:19:47;103336.31;;;5.81;50.30
45040;BME280;30778;53.574;7.770;2024-01-27T11:22:26;103340.59;;;5.77;50.26
45040;BME280;30778;53.574;7.770;2024-01-27T11:27:39;103337.19;;;5.81;49.27
45040;BME280;30778;53.574;7.770;2024-01-27T11:30:23;103337.31;;;5.87;49.65
45040;BME280;30778;53.574;7.770;2024-01-27T11:32:49;103337.81;;;6.14;49.55
45040;BME280;30778;53.574;7.770;2024-01-27T11:35:17;103336.44;;;6.33;49.34
45040;BME280;30778;53.574;7.770;2024-01-27T11:37:43;103334.16;;;6.53;49.02
45040;BME280;30778;53.574;7.770;2024-01-27T11:40:09;103336.59;;;6.97;46.93
45040;BME280;30778;53.574;7.770;2024-01-27T11:42:35;103333.44;;;6.11;48.79
45040;BME280;30778;53.574;7.770;2024-01-27T11:45:01;103342.84;;;6.04;48.78
45040;BME280;30778;53.574;7.770;2024-01-27T11:47:27;103334.00;;;6.43;48.80
45040;BME280;30778;53.574;7.770;2024-01-27T11:49:54;103333.69;;;5.35;50.93
45040;BME280;30778;53.574;7.770;2024-01-27T11:52:21;103328.31;;;6.16;48.62
45040;BME280;30778;53.574;7.770;2024-01-27T11:54:54;103325.44;;;6.00;50.47
45040;BME280;30778;53.574;7.770;2024-01-27T11:57:20;103320.91;;;5.90;49.68
45040;BME280;30778;53.574;7.770;2024-01-27T11:59:45;103336.00;;;5.64;50.36
45040;BME280;30778;53.574;7.770;2024-01-27T12:02:10;103331.09;;;5.78;50.38
45040;BME280;30778;53.574;7.770;2024-01-27T12:04:36;103335.03;;;6.04;49.37
45040;BME280;30778;53.574;7.770;2024-01-27T12:07:02;103343.66;;;6.03;50.35
45040;BME280;30778;53.574;7.770;2024-01-27T12:09:27;103338.72;;;6.16;48.84
45040;BME280;30778;53.574;7.770;2024-01-27T12:11:53;103343.75;;;6.06;49.66
45040;BME280;30778;53.574;7.770;2024-01-27T12:14:19;103343.03;;;5.70;49.83
45040;BME280;30778;53.574;7.770;2024-01-27T12:16:44;103341.69;;;5.90;50.40
45040;BME280;30778;53.574;7.770;2024-01-27T12:19:10;103347.72;;;5.45;50.09
45040;BME280;30778;53.574;7.770;2024-01-27T12:21:36;103339.09;;;5.90;49.99
45040;BME280;30778;53.574;7.770;2024-01-27T12:24:02;103342.34;;;5.36;51.56
45040;BME280;30778;53.574;7.770;2024-01-27T12:26:29;103346.97;;;5.52;51.08
45040;BME280;30778;53.574;7.770;2024-01-27T12:28:56;103345.69;;;5.32;50.87
45040;BME280;30778;53.574;7.770;2024-01-27T12:31:26;103344.00;;;5.34;51.15
45040;BME280;30778;53.574;7.770;2024-01-27T12:33:56;103340.97;;;5.53;50.37
45040;BME280;30778;53.574;7.770;2024-01-27T12:36:22;103339.19;;;5.11;51.22
45040;BME280;30778;53.574;7.770;2024-01-27T12:39:08;103338.94;;;5.00;51.66
45040;BME280;30778;53.574;7.770;2024-01-27T12:41:34;103341.16;;;5.21;51.35
45040;BME280;30778;53.574;7.770;2024-01-27T12:44:00;103336.25;;;4.96;51.31
45040;BME280;30778;53.574;7.770;2024-01-27T12:46:26;103343.97;;;4.58;52.90
45040;BME280;30778;53.574;7.770;2024-01-27T12:48:52;103340.94;;;4.76;52.44
45040;BME280;30778;53.574;7.770;2024-01-27T12:51:18;103345.13;;;5.45;51.03
45040;BME280;30778;53.574;7.770;2024-01-27T12:53:44;103339.47;;;4.86;51.56
45040;BME280;30778;53.574;7.770;2024-01-27T12:56:11;103330.41;;;5.44;51.33
45040;BME280;30778;53.574;7.770;2024-01-27T12:58:41;103343.84;;;5.67;50.64